EGAC

George Best Belfast City Airport

Belfast, United Kingdom
METAR EGAC 140320Z AUTO 15008KT 9999 BKN038/// 06/M01 Q1018
Observed Flight Rules
Dec-14 @ 03:20 UTC (27 minutes ago) Visual Flight Rules
Wind Visibility Clouds
150° at 8 knots 10,000+ meters
  • Broken at 3,800' AGL
Temperatures Readings
Current 6°C / 43°F
Dewpoint -1°C / 30°F
Humidity 61%
Altimeter 30.06" Hg
Pressure 1018 hPa
Elevation 5
METAR EGAC 140320Z AUTO 15008KT 9999 BKN038/// 06/M01 Q1018
Observed Flight Rules
Dec-14 @ 03:20 UTC
(27 minutes ago)
VFR
Wind Visibility
150° at 8 knots 10,000+ meters
Clouds
  • Broken at 3,800' AGL
Temperature Dewpoint
6°C / 43°F -1°C / 30°F
Humidity Altimeter Pressure
61% 30.06" Hg 1018 hPa